createdAt,value
2023-04-20T00:00:17.431Z,100396.97
2023-04-20T00:00:48.973Z,100405.38
2023-04-20T00:01:24.707Z,100398.31
2023-04-20T00:01:56.456Z,100403.19
2023-04-20T00:02:30.555Z,100393.38
2023-04-20T00:03:06.741Z,100399.41
2023-04-20T00:03:40.344Z,100403.75
2023-04-20T00:04:18.451Z,100402.69
2023-04-20T00:04:50.009Z,100399.94
2023-04-20T00:05:30.471Z,100401.28
2023-04-20T00:06:03.491Z,100399.41
2023-04-20T00:06:35.057Z,100395.88
2023-04-20T00:07:06.617Z,100396.66
2023-04-20T00:07:51.420Z,100394.50
2023-04-20T00:08:29.597Z,100393.94
2023-04-20T00:09:01.175Z,100390.13
2023-04-20T00:09:39.326Z,100390.41
2023-04-20T00:10:10.913Z,100391.22
2023-04-20T00:10:42.390Z,100396.94
2023-04-20T00:11:18.456Z,100393.16
2023-04-20T00:11:53.148Z,100396.13
2023-04-20T00:12:27.577Z,100392.56
2023-04-20T00:12:59.115Z,100396.66
2023-04-20T00:13:30.570Z,100381.69
2023-04-20T00:14:04.994Z,100387.16
2023-04-20T00:14:36.452Z,100378.44
2023-04-20T00:15:09.995Z,100387.38
2023-04-20T00:15:47.265Z,100382.16
2023-04-20T00:16:19.952Z,100378.97
2023-04-20T00:16:58.868Z,100379.34
2023-04-20T00:17:35.413Z,100378.72
2023-04-20T00:18:10.328Z,100379.75
2023-04-20T00:18:41.986Z,100381.97
2023-04-20T00:20:10.932Z,100376.56
2023-04-20T00:20:45.007Z,100376.34
2023-04-20T00:21:21.964Z,100383.41
2023-04-20T00:22:03.312Z,100384.88
2023-04-20T00:22:40.535Z,100383.66
2023-04-20T00:23:19.351Z,100375.53
2023-04-20T00:23:52.112Z,100374.28
2023-04-20T00:24:26.788Z,100371.19
2023-04-20T00:25:06.453Z,100372.91
2023-04-20T00:25:37.859Z,100367.78
2023-04-20T00:26:09.262Z,100365.59
2023-04-20T00:26:40.681Z,100369.78
2023-04-20T00:27:12.154Z,100374.91
2023-04-20T00:27:43.624Z,100367.22
2023-04-20T00:28:15.050Z,100366.47
2023-04-20T00:28:46.468Z,100366.19
2023-04-20T00:29:18.150Z,100364.66
2023-04-20T00:29:49.759Z,100366.81
2023-04-20T00:30:21.164Z,100360.97
2023-04-20T00:30:52.618Z,100356.38
2023-04-20T00:31:24.105Z,100357.38
2023-04-20T00:31:55.490Z,100361.00
2023-04-20T00:32:27.024Z,100363.22
2023-04-20T00:32:58.698Z,100364.34
2023-04-20T00:33:30.143Z,100361.63
2023-04-20T00:34:01.579Z,100355.22
2023-04-20T00:34:33.014Z,100360.50
2023-04-20T00:35:04.358Z,100352.09
2023-04-20T00:35:35.767Z,100350.94
2023-04-20T00:36:07.157Z,100350.75
2023-04-20T00:36:38.557Z,100345.22
2023-04-20T00:37:09.993Z,100341.38
2023-04-20T00:37:41.442Z,100348.66
2023-04-20T00:38:12.902Z,100350.56
2023-04-20T00:38:44.324Z,100347.16
2023-04-20T00:39:16.026Z,100345.28
2023-04-20T00:39:47.609Z,100343.00
2023-04-20T00:40:21.810Z,100352.44
2023-04-20T00:40:53.245Z,100350.13
2023-04-20T00:41:24.711Z,100344.41
2023-04-20T00:41:56.143Z,100344.81
2023-04-20T00:42:27.563Z,100342.66
2023-04-20T00:43:02.011Z,100343.25
2023-04-20T00:43:36.655Z,100338.72
2023-04-20T00:44:08.551Z,100339.97
2023-04-20T00:44:40.093Z,100335.13
2023-04-20T00:45:11.570Z,100342.34
2023-04-20T00:45:43.013Z,100340.31
2023-04-20T00:46:16.723Z,100339.31
2023-04-20T00:46:48.214Z,100341.69
2023-04-20T00:47:19.595Z,100334.97
2023-04-20T00:47:51.088Z,100334.97
2023-04-20T00:48:22.518Z,100340.53
2023-04-20T00:48:53.959Z,100334.22
2023-04-20T00:49:25.419Z,100337.09
2023-04-20T00:49:56.849Z,100338.31
2023-04-20T00:50:28.475Z,100327.66
2023-04-20T00:50:59.874Z,100337.44
2023-04-20T00:51:31.347Z,100327.69
2023-04-20T00:52:02.837Z,100338.91
2023-04-20T00:52:34.268Z,100327.19
2023-04-20T00:53:05.788Z,100330.31
2023-04-20T00:53:37.223Z,100327.75
2023-04-20T00:54:08.668Z,100329.31
2023-04-20T00:54:40.113Z,100325.22
2023-04-20T00:55:11.573Z,100328.97
2023-04-20T00:55:43.012Z,100325.13
2023-04-20T00:56:14.484Z,100322.91
2023-04-20T00:56:45.920Z,100329.81
2023-04-20T00:57:17.337Z,100323.31
2023-04-20T00:57:51.767Z,100324.22
2023-04-20T00:58:23.250Z,100323.63
2023-04-20T00:58:54.659Z,100326.63
2023-04-20T00:59:26.091Z,100322.28
2023-04-20T00:59:57.555Z,100319.22
2023-04-20T01:00:29.182Z,100318.56
2023-04-20T01:01:00.725Z,100320.38
2023-04-20T01:01:32.243Z,100321.75
2023-04-20T01:02:03.824Z,100309.97
2023-04-20T01:02:35.486Z,100311.47
2023-04-20T01:03:07.138Z,100315.88
2023-04-20T01:03:38.795Z,100312.41
2023-04-20T01:04:10.413Z,100315.47
2023-04-20T01:04:41.910Z,100301.94
2023-04-20T01:05:13.341Z,100309.31
2023-04-20T01:05:44.758Z,100300.94
2023-04-20T01:06:16.181Z,100304.25
2023-04-20T01:06:47.577Z,100305.13
2023-04-20T01:07:18.982Z,100302.44
2023-04-20T01:07:50.403Z,100307.34
2023-04-20T01:08:21.824Z,100301.91
2023-04-20T01:08:53.249Z,100299.25
2023-04-20T01:09:24.697Z,100297.63
2023-04-20T01:09:56.113Z,100288.44
2023-04-20T01:10:27.527Z,100302.31
2023-04-20T01:10:59.012Z,100297.44
2023-04-20T01:11:30.453Z,100299.38
2023-04-20T01:12:01.893Z,100295.56
2023-04-20T01:12:33.343Z,100298.31
2023-04-20T01:13:04.754Z,100297.25
2023-04-20T01:13:36.164Z,100299.97
2023-04-20T01:14:07.668Z,100293.75
2023-04-20T01:14:39.077Z,100301.66
2023-04-20T01:15:10.471Z,100295.13
2023-04-20T01:15:41.917Z,100292.41
2023-04-20T01:16:13.381Z,100293.53
2023-04-20T01:16:44.843Z,100295.69
2023-04-20T01:17:16.425Z,100294.88
2023-04-20T01:17:47.976Z,100294.34
2023-04-20T01:18:19.413Z,100288.66
2023-04-20T01:18:53.689Z,100288.94
2023-04-20T01:19:25.117Z,100287.84
2023-04-20T01:19:56.508Z,100287.03
2023-04-20T01:20:27.924Z,100286.22
2023-04-20T01:20:59.332Z,100281.31
2023-04-20T01:21:30.808Z,100281.84
2023-04-20T01:22:02.208Z,100284.03
2023-04-20T01:22:33.619Z,100292.19
2023-04-20T01:23:05.030Z,100275.38
2023-04-20T01:23:36.448Z,100276.44
2023-04-20T01:24:07.862Z,100274.53
2023-04-20T01:24:39.274Z,100276.19
2023-04-20T01:25:10.688Z,100267.75
2023-04-20T01:25:42.215Z,100274.03
2023-04-20T01:26:13.987Z,100268.59
2023-04-20T01:26:45.465Z,100266.41
2023-04-20T01:27:17.008Z,100264.53
2023-04-20T01:27:48.478Z,100266.16
2023-04-20T01:28:19.933Z,100265.88
2023-04-20T01:28:51.436Z,100264.53
2023-04-20T01:29:23.205Z,100263.72
2023-04-20T01:29:57.192Z,100257.75
2023-04-20T01:30:28.618Z,100259.38
2023-04-20T01:31:00.089Z,100260.47
2023-04-20T01:31:31.868Z,100265.38
2023-04-20T01:32:03.412Z,100263.47
2023-04-20T01:32:35.113Z,100252.06
2023-04-20T01:33:06.688Z,100252.88
2023-04-20T01:33:38.094Z,100246.34
2023-04-20T01:34:09.509Z,100247.44
2023-04-20T01:34:41.050Z,100243.38
2023-04-20T01:35:12.594Z,100242.28
2023-04-20T01:35:44.013Z,100242.28
2023-04-20T01:36:16.115Z,100245.28
2023-04-20T01:36:47.565Z,100239.31
2023-04-20T01:37:18.943Z,100239.59
2023-04-20T01:37:50.324Z,100238.78
2023-04-20T01:38:21.747Z,100240.41
2023-04-20T01:38:53.210Z,100241.75
2023-04-20T01:39:24.687Z,100235.50
2023-04-20T01:39:59.282Z,100232.81
2023-04-20T01:40:30.768Z,100234.44
2023-04-20T01:41:02.327Z,100236.38
2023-04-20T01:41:33.809Z,100232.31
2023-04-20T01:42:05.257Z,100236.38
2023-04-20T01:42:36.770Z,100238.84
2023-04-20T01:43:08.180Z,100238.84
2023-04-20T01:43:39.679Z,100231.22
2023-04-20T01:44:11.110Z,100237.75
2023-04-20T01:44:42.512Z,100233.41
2023-04-20T01:45:13.962Z,100237.47
2023-04-20T01:45:45.407Z,100234.75
2023-04-20T01:46:16.821Z,100230.41
2023-04-20T01:46:48.407Z,100228.78
2023-04-20T01:47:19.920Z,100236.94
2023-04-20T01:47:51.403Z,100229.34
2023-04-20T01:48:22.826Z,100232.03
2023-04-20T01:48:54.200Z,100229.59
2023-04-20T01:49:25.594Z,100223.63
2023-04-20T01:49:56.989Z,100228.25
2023-04-20T01:50:28.421Z,100226.34
2023-04-20T01:50:59.860Z,100226.34
2023-04-20T01:51:39.906Z,100223.63
2023-04-20T01:52:11.372Z,100224.16
2023-04-20T01:52:42.765Z,100223.63
2023-04-20T01:53:14.202Z,100223.09
2023-04-20T01:53:45.603Z,100213.84
2023-04-20T01:54:17.034Z,100222.00
2023-04-20T01:54:48.437Z,100210.03
2023-04-20T01:55:20.272Z,100213.31
2023-04-20T01:55:51.840Z,100211.13
2023-04-20T01:56:23.330Z,100207.31
2023-04-20T01:56:54.793Z,100213.84
2023-04-20T01:57:26.315Z,100207.88
2023-04-20T01:57:57.757Z,100204.88
2023-04-20T01:58:29.198Z,100203.50
2023-04-20T01:59:00.617Z,100204.88
2023-04-20T01:59:32.096Z,100202.97
2023-04-20T02:00:03.513Z,100195.34
2023-04-20T02:00:34.924Z,100205.69
2023-04-20T02:01:06.429Z,100206.50
2023-04-20T02:01:37.852Z,100197.25
2023-04-20T02:02:09.431Z,100197.81
2023-04-20T02:02:41.026Z,100201.63
2023-04-20T02:03:48.111Z,100201.06
2023-04-20T02:04:19.366Z,100203.25
2023-04-20T02:04:50.569Z,100197.25
2023-04-20T02:05:21.860Z,100205.16
2023-04-20T02:05:53.393Z,100204.06
2023-04-20T02:06:24.885Z,100199.16
2023-04-20T02:06:56.340Z,100200.81
2023-04-20T02:07:27.875Z,100198.06
2023-04-20T02:07:59.406Z,100205.16
2023-04-20T02:08:30.887Z,100197.53
2023-04-20T02:09:02.326Z,100198.91
2023-04-20T02:09:33.709Z,100197.53
2023-04-20T02:10:05.337Z,100200.25
2023-04-20T02:10:36.849Z,100198.63
2023-04-20T02:11:08.250Z,100194.81
2023-04-20T02:11:39.682Z,100194.81
2023-04-20T02:12:11.175Z,100198.91
2023-04-20T02:12:42.557Z,100201.88
2023-04-20T02:13:14.155Z,100199.16
2023-04-20T02:13:45.599Z,100200.81
2023-04-20T02:14:17.031Z,100195.91
2023-04-20T02:14:48.580Z,100192.09
2023-04-20T02:15:20.038Z,100200.53
2023-04-20T02:15:51.447Z,100196.19
2023-04-20T02:16:22.863Z,100195.34
2023-04-20T02:16:54.298Z,100196.44
2023-04-20T02:17:25.827Z,100194.53
2023-04-20T02:17:57.300Z,100194.28
2023-04-20T02:18:28.848Z,100194.28
2023-04-20T02:19:00.301Z,100199.72
2023-04-20T02:19:31.736Z,100190.19
2023-04-20T02:20:03.151Z,100203.25
2023-04-20T02:20:34.572Z,100197.53
2023-04-20T02:21:06.066Z,100195.63
2023-04-20T02:21:37.528Z,100197.00
2023-04-20T02:22:08.917Z,100198.63
2023-04-20T02:22:40.365Z,100191.28
2023-04-20T02:23:11.984Z,100189.66
2023-04-20T02:23:43.432Z,100194.81
2023-04-20T02:24:14.957Z,100197.00
2023-04-20T02:24:46.360Z,100191.81
2023-04-20T02:25:17.859Z,100186.13
2023-04-20T02:25:49.290Z,100189.66
2023-04-20T02:26:20.736Z,100196.72
2023-04-20T02:26:52.169Z,100190.47
2023-04-20T02:27:23.557Z,100192.38
2023-04-20T02:27:54.967Z,100190.72
2023-04-20T02:28:26.429Z,100193.19
2023-04-20T02:28:57.933Z,100193.19
2023-04-20T02:29:29.391Z,100194.28
2023-04-20T02:30:00.818Z,100191.00
2023-04-20T02:30:32.194Z,100188.28
2023-04-20T02:31:03.597Z,100188.28
2023-04-20T02:31:35.189Z,100186.38
2023-04-20T02:32:06.672Z,100192.63
2023-04-20T02:32:38.188Z,100183.41
2023-04-20T02:33:09.601Z,100184.22
2023-04-20T02:33:40.988Z,100184.47
2023-04-20T02:34:12.490Z,100181.75
2023-04-20T02:34:43.948Z,100181.50
2023-04-20T02:35:15.426Z,100179.03
2023-04-20T02:35:46.781Z,100180.94
2023-04-20T02:36:18.232Z,100186.66
2023-04-20T02:36:49.653Z,100184.22
2023-04-20T02:37:21.063Z,100183.94
2023-04-20T02:37:52.456Z,100183.13
2023-04-20T02:38:23.962Z,100179.59
2023-04-20T02:38:55.361Z,100183.41
2023-04-20T02:39:26.891Z,100182.31
2023-04-20T02:39:58.441Z,100179.84
2023-04-20T02:40:29.898Z,100186.38
2023-04-20T02:41:01.368Z,100183.41
2023-04-20T02:41:32.770Z,100189.66
2023-04-20T02:42:04.241Z,100175.50
2023-04-20T02:42:35.682Z,100180.94
2023-04-20T02:43:08.267Z,100177.41
2023-04-20T02:43:39.762Z,100180.66
2023-04-20T02:44:11.145Z,100181.75
2023-04-20T02:44:42.609Z,100176.88
2023-04-20T02:45:14.040Z,100175.22
2023-04-20T02:45:45.430Z,100180.66
2023-04-20T02:46:16.873Z,100177.69
2023-04-20T02:46:48.416Z,100179.03
2023-04-20T02:47:19.969Z,100174.16
2023-04-20T02:47:51.592Z,100178.50
2023-04-20T02:48:23.028Z,100173.06
2023-04-20T02:48:54.434Z,100177.97
2023-04-20T02:49:25.912Z,100172.50
2023-04-20T02:49:57.395Z,100181.50
2023-04-20T02:50:28.817Z,100172.25
2023-04-20T02:51:00.281Z,100180.66
2023-04-20T02:51:31.761Z,100176.31
2023-04-20T02:52:03.215Z,100176.06
2023-04-20T02:52:34.618Z,100173.59
2023-04-20T02:53:06.106Z,100176.06
2023-04-20T02:53:37.530Z,100175.22
2023-04-20T02:54:08.963Z,100173.88
2023-04-20T02:54:40.446Z,100175.22
2023-04-20T02:55:11.923Z,100168.97
2023-04-20T02:55:43.417Z,100166.53
2023-04-20T02:56:14.896Z,100171.97
2023-04-20T02:56:46.359Z,100176.59
2023-04-20T02:57:17.801Z,100170.88
2023-04-20T02:57:49.173Z,100169.25
2023-04-20T02:58:20.581Z,100167.63
2023-04-20T02:58:52.002Z,100170.59
2023-04-20T02:59:23.416Z,100166.00
2023-04-20T02:59:54.852Z,100171.97
2023-04-20T03:00:26.323Z,100167.63
2023-04-20T03:00:57.732Z,100171.44
2023-04-20T03:01:29.155Z,100170.34
2023-04-20T03:02:00.729Z,100173.59
2023-04-20T03:02:32.383Z,100166.25
2023-04-20T03:03:03.937Z,100166.25
2023-04-20T03:03:35.580Z,100168.97
2023-04-20T03:04:07.264Z,100163.53
2023-04-20T03:04:38.871Z,100163.28
2023-04-20T03:05:10.352Z,100172.78
2023-04-20T03:05:41.903Z,100167.06
2023-04-20T03:06:13.337Z,100165.16
2023-04-20T03:06:44.825Z,100162.44
2023-04-20T03:07:16.764Z,100170.06
2023-04-20T03:07:48.301Z,100164.34
2023-04-20T03:08:19.693Z,100165.97
2023-04-20T03:08:51.089Z,100171.16
2023-04-20T03:09:22.509Z,100169.78
2023-04-20T03:09:53.907Z,100166.78
2023-04-20T03:10:25.291Z,100165.44
2023-04-20T03:10:56.820Z,100170.34
2023-04-20T03:11:28.264Z,100162.44
2023-04-20T03:11:59.676Z,100160.53
2023-04-20T03:12:31.112Z,100157.28
2023-04-20T03:13:02.485Z,100160.28
2023-04-20T03:13:33.978Z,100160.28
2023-04-20T03:14:05.517Z,100155.66
2023-04-20T03:14:36.923Z,100156.47
2023-04-20T03:15:08.361Z,100157.28
2023-04-20T03:15:39.740Z,100159.72
2023-04-20T03:16:11.283Z,100158.38
2023-04-20T03:16:42.713Z,100155.09
2023-04-20T03:17:14.221Z,100155.09
2023-04-20T03:17:45.714Z,100152.09
2023-04-20T03:18:17.181Z,100153.75
2023-04-20T03:18:48.588Z,100153.19
2023-04-20T03:19:20.039Z,100156.72
2023-04-20T03:19:51.524Z,100149.66
2023-04-20T03:20:22.929Z,100154.00
2023-04-20T03:20:54.328Z,100152.94
2023-04-20T03:21:25.831Z,100152.09
2023-04-20T03:21:57.308Z,100147.75
2023-04-20T03:22:28.749Z,100149.66
2023-04-20T03:23:00.184Z,100149.94
2023-04-20T03:23:31.709Z,100144.50
2023-04-20T03:24:03.099Z,100152.38
2023-04-20T03:24:34.531Z,100150.19
2023-04-20T03:25:05.959Z,100149.13
2023-04-20T03:25:37.381Z,100152.94
2023-04-20T03:26:08.776Z,100149.94
2023-04-20T03:26:40.272Z,100149.66
2023-04-20T03:27:11.661Z,100149.38
2023-04-20T03:27:43.067Z,100148.28
2023-04-20T03:28:14.468Z,100152.91
2023-04-20T03:28:45.882Z,100151.28
2023-04-20T03:29:17.451Z,100154.00
2023-04-20T03:29:49.055Z,100148.03
2023-04-20T03:30:20.515Z,100144.22
2023-04-20T03:30:51.934Z,100147.47
2023-04-20T03:31:23.369Z,100144.75
2023-04-20T03:31:54.813Z,100149.94
2023-04-20T03:32:26.325Z,100142.59
2023-04-20T03:32:57.856Z,100144.22
2023-04-20T03:33:29.347Z,100138.50
2023-04-20T03:34:00.724Z,100143.13
2023-04-20T03:34:32.162Z,100141.22
2023-04-20T03:35:03.640Z,100134.97
2023-04-20T03:35:35.084Z,100140.13
2023-04-20T03:36:06.619Z,100139.03
2023-04-20T03:36:38.080Z,100136.88
2023-04-20T03:37:09.606Z,100135.78
2023-04-20T03:37:41.046Z,100139.59
2023-04-20T03:38:12.510Z,100134.69
2023-04-20T03:38:44.002Z,100139.88
2023-04-20T03:39:15.517Z,100138.22
2023-04-20T03:39:47.086Z,100131.16
2023-04-20T03:40:18.566Z,100133.06
2023-04-20T03:40:49.979Z,100134.41
2023-04-20T03:41:21.364Z,100139.31
2023-04-20T03:41:52.786Z,100135.50
2023-04-20T03:42:24.291Z,100138.22
2023-04-20T03:42:55.742Z,100130.63
2023-04-20T03:43:27.176Z,100140.66
2023-04-20T03:43:58.601Z,100131.69
2023-04-20T03:44:30.070Z,100131.16
2023-04-20T03:45:01.496Z,100137.41
2023-04-20T03:45:32.940Z,100138.78
2023-04-20T03:46:04.464Z,100129.78
2023-04-20T03:46:35.956Z,100137.41
2023-04-20T03:47:07.392Z,100134.41
2023-04-20T03:47:38.930Z,100131.44
2023-04-20T03:48:10.410Z,100135.78
2023-04-20T03:48:41.847Z,100138.22
2023-04-20T03:49:13.295Z,100136.06
2023-04-20T03:49:44.694Z,100136.59
2023-04-20T03:50:16.131Z,100143.66
2023-04-20T03:50:47.530Z,100143.66
2023-04-20T03:51:18.964Z,100132.78
2023-04-20T03:51:50.355Z,100129.25
2023-04-20T03:52:21.798Z,100136.59
2023-04-20T03:52:53.249Z,100136.59
2023-04-20T03:53:24.661Z,100135.25
2023-04-20T03:53:56.065Z,100134.41
2023-04-20T03:54:27.489Z,100137.69
2023-04-20T03:54:58.905Z,100136.59
2023-04-20T03:55:30.324Z,100136.59
2023-04-20T03:56:01.794Z,100141.22
2023-04-20T03:56:33.191Z,100138.50
2023-04-20T03:57:04.683Z,100141.22
2023-04-20T03:57:36.129Z,100132.25
2023-04-20T03:58:07.697Z,100132.78
2023-04-20T03:58:39.105Z,100132.78
2023-04-20T03:59:10.600Z,100133.59
2023-04-20T03:59:42.371Z,100136.06
2023-04-20T04:00:13.853Z,100136.31
2023-04-20T04:00:45.255Z,100132.25
2023-04-20T04:01:16.735Z,100136.06
2023-04-20T04:01:48.199Z,100134.13
2023-04-20T04:02:19.612Z,100138.22
2023-04-20T04:02:51.230Z,100131.69
2023-04-20T04:03:22.972Z,100125.72
2023-04-20T04:03:54.684Z,100127.63
2023-04-20T04:04:26.549Z,100132.78
2023-04-20T04:04:58.322Z,100135.25
2023-04-20T04:05:30.058Z,100129.78
2023-04-20T04:06:01.521Z,100130.63
2023-04-20T04:06:32.966Z,100124.91
2023-04-20T04:07:04.358Z,100130.34
2023-04-20T04:07:35.780Z,100124.34
2023-04-20T04:08:07.221Z,100121.34
2023-04-20T04:08:38.695Z,100124.91
2023-04-20T04:09:10.100Z,100129.78
2023-04-20T04:09:41.589Z,100124.91
2023-04-20T04:10:13.023Z,100128.44
2023-04-20T04:10:44.463Z,100131.16
2023-04-20T04:11:15.869Z,100128.97
2023-04-20T04:11:47.322Z,100133.31
2023-04-20T04:12:18.777Z,100132.25
2023-04-20T04:12:50.173Z,100135.22
2023-04-20T04:13:21.609Z,100127.88
2023-04-20T04:13:53.073Z,100131.16
2023-04-20T04:14:24.508Z,100128.72
2023-04-20T04:14:55.905Z,100136.59
2023-04-20T04:15:27.353Z,100132.25
2023-04-20T04:15:58.780Z,100133.31
2023-04-20T04:16:30.336Z,100129.78
2023-04-20T04:17:01.847Z,100136.03
2023-04-20T04:17:33.363Z,100130.59
2023-04-20T04:18:04.867Z,100133.81
2023-04-20T04:18:36.326Z,100131.91
2023-04-20T04:19:07.875Z,100133.00
2023-04-20T04:19:39.275Z,100134.63
2023-04-20T04:20:10.783Z,100124.84
2023-04-20T04:20:42.236Z,100134.91
2023-04-20T04:21:13.670Z,100130.56
2023-04-20T04:21:45.099Z,100137.63
2023-04-20T04:22:16.486Z,100141.72
2023-04-20T04:22:47.880Z,100132.19
2023-04-20T04:23:19.321Z,100133.81
2023-04-20T04:23:50.780Z,100131.91
2023-04-20T04:24:22.306Z,100126.19
2023-04-20T04:24:53.711Z,100127.88
2023-04-20T04:25:25.075Z,100130.59
2023-04-20T04:25:56.492Z,100127.06
2023-04-20T04:26:27.933Z,100132.78
2023-04-20T04:26:59.404Z,100124.84
2023-04-20T04:27:30.842Z,100132.78
2023-04-20T04:28:02.299Z,100126.78
2023-04-20T04:28:33.713Z,100129.78
2023-04-20T04:29:05.147Z,100127.06
2023-04-20T04:29:36.622Z,100124.34
2023-04-20T04:30:08.044Z,100127.88
2023-04-20T04:30:39.482Z,100134.69
2023-04-20T04:31:10.938Z,100127.59
2023-04-20T04:31:42.494Z,100129.78
2023-04-20T04:32:13.998Z,100131.41
2023-04-20T04:32:45.466Z,100133.31
2023-04-20T04:33:16.924Z,100126.81
2023-04-20T04:33:48.399Z,100127.34
2023-04-20T04:34:19.829Z,100126.81
2023-04-20T04:34:51.316Z,100133.34
2023-04-20T04:35:22.743Z,100127.88
2023-04-20T04:35:54.208Z,100124.34
2023-04-20T04:36:25.682Z,100124.91
2023-04-20T04:36:57.188Z,100126.81
2023-04-20T04:37:28.619Z,100129.25
2023-04-20T04:37:59.999Z,100123.28
2023-04-20T04:38:31.418Z,100121.09
2023-04-20T04:39:02.896Z,100128.16
2023-04-20T04:39:34.339Z,100121.91
2023-04-20T04:40:05.833Z,100118.63
2023-04-20T04:40:37.427Z,100123.28
2023-04-20T04:41:09.007Z,100123.53
2023-04-20T04:41:40.600Z,100124.34
2023-04-20T04:42:12.072Z,100123.53
2023-04-20T04:42:43.495Z,100124.34
2023-04-20T04:43:14.910Z,100129.78
2023-04-20T04:43:46.394Z,100130.59
2023-04-20T04:44:17.873Z,100127.59
2023-04-20T04:44:49.465Z,100126.25
2023-04-20T04:45:20.968Z,100123.25
2023-04-20T04:45:52.456Z,100130.88
2023-04-20T04:46:23.972Z,100122.44
2023-04-20T04:46:55.494Z,100125.16
2023-04-20T04:47:26.955Z,100130.59
2023-04-20T04:47:58.471Z,100127.88
2023-04-20T04:48:29.956Z,100127.34
2023-04-20T04:49:01.541Z,100128.69
2023-04-20T04:49:33.010Z,100127.63
2023-04-20T04:50:04.446Z,100131.16
2023-04-20T04:50:35.986Z,100126.00
2023-04-20T04:51:07.477Z,100128.44
2023-04-20T04:51:38.916Z,100127.88
2023-04-20T04:52:10.343Z,100133.06
2023-04-20T04:52:41.757Z,100132.25
2023-04-20T04:53:13.180Z,100127.63
2023-04-20T04:53:44.678Z,100130.63
2023-04-20T04:54:16.060Z,100128.97
2023-04-20T04:54:47.465Z,100131.41
2023-04-20T04:55:18.864Z,100133.03
2023-04-20T04:55:50.332Z,100137.13
2023-04-20T04:56:21.797Z,100136.03
2023-04-20T04:56:53.184Z,100136.31
2023-04-20T04:57:24.567Z,100130.06
2023-04-20T04:57:56.032Z,100138.50
2023-04-20T04:58:27.473Z,100130.63
2023-04-20T04:58:58.902Z,100134.41
2023-04-20T04:59:30.338Z,100132.25
2023-04-20T05:00:01.716Z,100132.25
2023-04-20T05:00:33.207Z,100132.25
2023-04-20T05:01:04.690Z,100127.63
2023-04-20T05:01:36.142Z,100133.88
2023-04-20T05:02:07.725Z,100131.16
2023-04-20T05:02:39.865Z,100129.53
2023-04-20T05:03:11.729Z,100135.50
2023-04-20T05:03:43.486Z,100139.31
2023-04-20T05:04:15.107Z,100137.13
2023-04-20T05:04:46.726Z,100133.34
2023-04-20T05:05:18.227Z,100127.88
2023-04-20T05:05:49.599Z,100134.16
2023-04-20T05:06:21.051Z,100132.78
2023-04-20T05:06:52.466Z,100128.97
2023-04-20T05:07:23.895Z,100137.69
2023-04-20T05:07:55.345Z,100130.63
2023-04-20T05:08:26.727Z,100137.97
2023-04-20T05:08:58.111Z,100131.69
2023-04-20T05:09:29.555Z,100130.88
2023-04-20T05:10:00.950Z,100129.53
2023-04-20T05:10:32.368Z,100137.69
2023-04-20T05:11:03.805Z,100137.16
2023-04-20T05:11:35.283Z,100135.50
2023-04-20T05:12:06.665Z,100137.69
2023-04-20T05:12:38.061Z,100131.44
2023-04-20T05:13:09.462Z,100132.50
2023-04-20T05:13:40.896Z,100136.31
2023-04-20T05:14:12.338Z,100137.16
2023-04-20T05:14:43.752Z,100138.50
2023-04-20T05:15:15.152Z,100135.25
2023-04-20T05:15:46.566Z,100140.94
2023-04-20T05:16:18.094Z,100137.69
2023-04-20T05:16:49.632Z,100143.66
2023-04-20T05:17:21.114Z,100141.50
2023-04-20T05:17:52.609Z,100142.84
2023-04-20T05:18:24.122Z,100140.41
2023-04-20T05:18:55.522Z,100143.13
2023-04-20T05:19:26.981Z,100140.41
2023-04-20T05:19:58.379Z,100142.03
2023-04-20T05:20:29.817Z,100143.13
2023-04-20T05:21:01.224Z,100143.38
2023-04-20T05:21:32.684Z,100141.75
2023-04-20T05:22:04.133Z,100147.47
2023-04-20T05:22:35.561Z,100145.56
2023-04-20T05:23:07.068Z,100151.28
2023-04-20T05:23:38.484Z,100148.53
2023-04-20T05:24:09.894Z,100150.72
2023-04-20T05:24:41.323Z,100145.03
2023-04-20T05:25:13.987Z,100151.28
2023-04-20T05:25:45.650Z,100149.38
2023-04-20T05:26:17.056Z,100147.75
2023-04-20T05:26:48.505Z,100151.28
2023-04-20T05:27:19.999Z,100143.13
2023-04-20T05:27:51.458Z,100151.56
2023-04-20T05:28:22.843Z,100152.94
2023-04-20T05:28:54.252Z,100153.19
2023-04-20T05:29:25.683Z,100149.94
2023-04-20T05:30:03.706Z,100153.47
2023-04-20T05:30:44.330Z,100151.00
2023-04-20T05:31:15.896Z,100146.94
2023-04-20T05:31:47.453Z,100153.47
2023-04-20T05:32:18.947Z,100149.66
2023-04-20T05:32:52.307Z,100156.72
2023-04-20T05:33:24.126Z,100149.09
2023-04-20T05:33:55.570Z,100155.09
2023-04-20T05:34:26.998Z,100151.81
2023-04-20T05:34:58.437Z,100152.91
2023-04-20T05:35:29.877Z,100151.28
2023-04-20T05:36:01.276Z,100152.09
2023-04-20T05:36:32.689Z,100157.53
2023-04-20T05:37:04.155Z,100151.00
2023-04-20T05:37:35.614Z,100149.66
2023-04-20T05:38:07.101Z,100138.22
2023-04-20T05:38:38.510Z,100143.66
2023-04-20T05:39:09.881Z,100148.84
2023-04-20T05:39:41.323Z,100154.00
2023-04-20T05:40:12.727Z,100148.84
2023-04-20T05:40:44.281Z,100147.75
2023-04-20T05:41:15.712Z,100146.38
2023-04-20T05:41:47.132Z,100149.91
2023-04-20T05:42:18.538Z,100142.31
2023-04-20T05:42:50.172Z,100147.75
2023-04-20T05:43:21.605Z,100150.19
2023-04-20T05:43:53.014Z,100147.75
2023-04-20T05:44:24.429Z,100153.47
2023-04-20T05:44:55.873Z,100147.75
2023-04-20T05:45:27.409Z,100146.38
2023-04-20T05:45:59.091Z,100146.38
2023-04-20T05:46:30.581Z,100154.53
2023-04-20T05:47:02.002Z,100150.19
2023-04-20T05:47:33.473Z,100148.56
2023-04-20T05:48:04.964Z,100152.38
2023-04-20T05:48:36.497Z,100149.66
2023-04-20T05:49:07.909Z,100149.91
2023-04-20T05:49:39.324Z,100155.09
2023-04-20T05:50:10.876Z,100149.91
2023-04-20T05:50:42.340Z,100155.91
2023-04-20T05:51:13.877Z,100155.91
2023-04-20T05:51:45.288Z,100150.72
2023-04-20T05:52:16.719Z,100160.25
2023-04-20T05:52:48.163Z,100155.09
2023-04-20T05:53:19.602Z,100164.06
2023-04-20T05:53:51.257Z,100159.16
2023-04-20T05:54:22.681Z,100157.53
2023-04-20T05:54:54.071Z,100156.72
2023-04-20T05:55:25.487Z,100145.28
2023-04-20T05:55:56.894Z,100159.16
2023-04-20T05:56:28.339Z,100158.63
2023-04-20T05:56:59.783Z,100159.44
2023-04-20T05:57:31.202Z,100163.25
2023-04-20T05:58:02.587Z,100153.44
2023-04-20T05:58:34.099Z,100155.63
2023-04-20T05:59:05.497Z,100158.63
2023-04-20T05:59:36.893Z,100158.34
2023-04-20T06:00:08.371Z,100159.72
2023-04-20T06:00:39.793Z,100153.72
2023-04-20T06:01:11.258Z,100164.06
2023-04-20T06:01:42.653Z,100154.28
2023-04-20T06:02:14.476Z,100157.25
2023-04-20T06:02:46.201Z,100152.91
2023-04-20T06:03:17.898Z,100157.81
2023-04-20T06:03:49.729Z,100151.81